Impacts TAF Board INFO
FOR SITUATIONAL AWARENESS. NOT TO BE USED FOR FLIGHT PLANNING PURPOSES.
IDs:

KSAN - San Diego Intl Arpt, CA, US

Issued at 0906 UTC 24 Jun 2018
Updated at 1035 UTC 24 Jun 2018
Potential Impact None Slight Moderate High
Time0951Z 24/11Z 24/12Z 24/13Z 24/14Z 24/15Z 24/16Z 24/17Z 24/18Z 24/19Z 24/20Z 24/21Z 24/22Z 24/23Z>>
Type OBS PRVL PRVL PRVL PRVL PRVL PRVL PRVL PRVL PRVL PRVL PRVL PRVL PRVL
VIS 10 >6 >6 >6 >6 >6 >6 >6 >6 >6 >6 >6 >6 >6
CIG 14 14 14 14 14 14 14 14 14 14 -- -- -- --
Cover OVC OVC OVC OVC OVC OVC OVC OVC OVC OVC SCT SCT SCT SCT
FltCat MVFR MVFR MVFR MVFR MVFR MVFR MVFR MVFR MVFR MVFR VFR VFR VFR VFR
WX -- -- -- -- -- -- -- -- -- -- -- -- -- --
WDir 190 200 200 200 200 200 200 200 200 200 190 190 190 190
WSpd 8 6 6 6 6 6 6 6 6 6 9 9 9 9
WGst -- -- -- -- -- -- -- -- -- -- -- -- -- --

Raw TAF
KSAN 240906Z 2409/2512 20006KT P6SM OVC014
  FM242000 19009KT P6SM SCT020
  FM250200 VRB05KT P6SM BKN015


Raw METAR
KSAN 240951Z 19008KT 10SM OVC014 18/13 A2988 RMK AO2 SLP119 T01780133
KSAN 240851Z 20007KT 10SM OVC014 17/14 A2989 RMK AO2 SLP121 T01720139 58003
KSAN 240759Z 19008KT 10SM OVC014 17/13 A2989 RMK AO2 T01720133
KSAN 240751Z 19007KT 10SM OVC015 18/14 A2989 RMK AO2 SLP122 T01780139 401940167

METAR Board
Radar Display
Forecast Discussion

FOR SITUATIONAL AWARENESS. NOT TO BE USED FOR FLIGHT PLANNING PURPOSES.